sensor_id;sensor_type;location;lat;lon;timestamp;pressure;altitude;pressure_sealevel;temperature;humidity
26531;BME280;14201;43.188;24.160;2023-06-14T00:01:00;99368.19;;;19.71;89.54
26531;BME280;14201;43.188;24.160;2023-06-14T00:03:28;99363.75;;;19.59;90.20
26531;BME280;14201;43.188;24.160;2023-06-14T00:05:53;99362.91;;;19.60;89.13
26531;BME280;14201;43.188;24.160;2023-06-14T00:08:19;99358.50;;;19.62;88.54
26531;BME280;14201;43.188;24.160;2023-06-14T00:10:46;99354.09;;;19.63;88.54
26531;BME280;14201;43.188;24.160;2023-06-14T00:13:11;99353.19;;;19.67;88.75
26531;BME280;14201;43.188;24.160;2023-06-14T00:15:37;99353.22;;;19.70;88.76
26531;BME280;14201;43.188;24.160;2023-06-14T00:18:03;99354.13;;;19.74;87.34
26531;BME280;14201;43.188;24.160;2023-06-14T00:20:30;99345.31;;;19.75;86.19
26531;BME280;14201;43.188;24.160;2023-06-14T00:22:59;99353.25;;;19.78;86.42
26531;BME280;14201;43.188;24.160;2023-06-14T00:25:24;99354.13;;;19.77;86.59
26531;BME280;14201;43.188;24.160;2023-06-14T00:27:53;99354.13;;;19.80;87.06
26531;BME280;14201;43.188;24.160;2023-06-14T00:30:19;99359.41;;;19.83;86.88
26531;BME280;14201;43.188;24.160;2023-06-14T00:32:44;99357.66;;;19.79;87.09
26531;BME280;14201;43.188;24.160;2023-06-14T00:35:10;99362.06;;;19.81;87.19
26531;BME280;14201;43.188;24.160;2023-06-14T00:37:36;99351.47;;;19.84;86.49
26531;BME280;14201;43.188;24.160;2023-06-14T00:40:01;99357.66;;;19.82;86.90
26531;BME280;14201;43.188;24.160;2023-06-14T00:42:27;99354.13;;;19.77;87.07
26531;BME280;14201;43.188;24.160;2023-06-14T00:44:53;99353.25;;;19.82;87.40
26531;BME280;14201;43.188;24.160;2023-06-14T00:47:18;99354.13;;;19.83;88.15
26531;BME280;14201;43.188;24.160;2023-06-14T00:49:48;99350.59;;;19.75;88.50
26531;BME280;14201;43.188;24.160;2023-06-14T00:52:15;99358.50;;;19.68;88.28
26531;BME280;14201;43.188;24.160;2023-06-14T00:54:41;99350.59;;;19.76;88.54
26531;BME280;14201;43.188;24.160;2023-06-14T00:57:07;99347.97;;;19.79;88.15
26531;BME280;14201;43.188;24.160;2023-06-14T00:59:33;99345.31;;;19.73;88.27
26531;BME280;14201;43.188;24.160;2023-06-14T01:02:01;99346.16;;;19.71;88.08
26531;BME280;14201;43.188;24.160;2023-06-14T01:04:26;99348.78;;;19.67;87.48
26531;BME280;14201;43.188;24.160;2023-06-14T01:07:33;99340.00;;;19.68;88.29
26531;BME280;14201;43.188;24.160;2023-06-14T01:12:24;99338.22;;;19.63;90.63
26531;BME280;14201;43.188;24.160;2023-06-14T01:14:51;99339.97;;;19.59;91.40
26531;BME280;14201;43.188;24.160;2023-06-14T01:17:19;99331.16;;;19.39;92.91
26531;BME280;14201;43.188;24.160;2023-06-14T01:19:44;99339.97;;;19.44;92.42
26531;BME280;14201;43.188;24.160;2023-06-14T01:22:10;99337.31;;;19.39;92.15
26531;BME280;14201;43.188;24.160;2023-06-14T01:24:36;99332.91;;;19.46;91.90
26531;BME280;14201;43.188;24.160;2023-06-14T01:27:04;99325.88;;;19.48;92.47
26531;BME280;14201;43.188;24.160;2023-06-14T01:29:30;99327.66;;;19.58;92.27
26531;BME280;14201;43.188;24.160;2023-06-14T01:32:01;99329.41;;;19.59;91.81
26531;BME280;14201;43.188;24.160;2023-06-14T01:34:27;99333.84;;;19.60;90.64
26531;BME280;14201;43.188;24.160;2023-06-14T01:36:52;99325.00;;;19.49;90.76
26531;BME280;14201;43.188;24.160;2023-06-14T01:39:20;99328.53;;;19.53;89.68
26531;BME280;14201;43.188;24.160;2023-06-14T01:41:46;99325.00;;;19.54;88.69
26531;BME280;14201;43.188;24.160;2023-06-14T01:44:12;99330.28;;;19.52;89.10
26531;BME280;14201;43.188;24.160;2023-06-14T01:46:39;99321.47;;;19.44;89.55
26531;BME280;14201;43.188;24.160;2023-06-14T01:49:05;99319.69;;;19.38;90.00
26531;BME280;14201;43.188;24.160;2023-06-14T01:51:31;99320.59;;;19.42;90.26
26531;BME280;14201;43.188;24.160;2023-06-14T01:53:56;99324.97;;;19.38;91.28
26531;BME280;14201;43.188;24.160;2023-06-14T01:56:22;99323.22;;;19.42;91.56
26531;BME280;14201;43.188;24.160;2023-06-14T01:58:47;99326.75;;;19.42;92.07
26531;BME280;14201;43.188;24.160;2023-06-14T02:01:13;99323.22;;;19.48;92.17
26531;BME280;14201;43.188;24.160;2023-06-14T02:03:41;99322.34;;;19.41;92.56
26531;BME280;14201;43.188;24.160;2023-06-14T02:06:07;99327.63;;;19.40;92.66
26531;BME280;14201;43.188;24.160;2023-06-14T02:08:32;99331.16;;;19.36;92.40
26531;BME280;14201;43.188;24.160;2023-06-14T02:10:58;99331.16;;;19.39;91.87
26531;BME280;14201;43.188;24.160;2023-06-14T02:13:23;99329.38;;;19.42;91.92
26531;BME280;14201;43.188;24.160;2023-06-14T02:15:49;99332.03;;;19.45;91.92
26531;BME280;14201;43.188;24.160;2023-06-14T02:18:19;99329.38;;;19.35;92.59
26531;BME280;14201;43.188;24.160;2023-06-14T02:20:45;99332.94;;;19.37;92.60
26531;BME280;14201;43.188;24.160;2023-06-14T02:23:11;99336.47;;;19.45;92.47
26531;BME280;14201;43.188;24.160;2023-06-14T02:25:36;99339.97;;;19.47;92.94
26531;BME280;14201;43.188;24.160;2023-06-14T02:28:02;99342.59;;;19.44;94.35
26531;BME280;14201;43.188;24.160;2023-06-14T02:30:28;99339.09;;;19.43;94.38
26531;BME280;14201;43.188;24.160;2023-06-14T02:32:53;99340.84;;;19.40;94.44
26531;BME280;14201;43.188;24.160;2023-06-14T02:35:19;99347.00;;;19.40;94.25
26531;BME280;14201;43.188;24.160;2023-06-14T02:37:45;99356.72;;;19.43;93.67
26531;BME280;14201;43.188;24.160;2023-06-14T02:40:11;99354.06;;;19.46;93.84
26531;BME280;14201;43.188;24.160;2023-06-14T02:42:37;99361.13;;;19.55;94.25
26531;BME280;14201;43.188;24.160;2023-06-14T02:45:02;99359.38;;;19.58;93.35
26531;BME280;14201;43.188;24.160;2023-06-14T02:47:29;99363.78;;;19.56;93.43
26531;BME280;14201;43.188;24.160;2023-06-14T02:49:55;99361.13;;;19.55;93.84
26531;BME280;14201;43.188;24.160;2023-06-14T02:52:20;99364.66;;;19.61;93.81
26531;BME280;14201;43.188;24.160;2023-06-14T02:54:46;99362.88;;;19.57;93.38
26531;BME280;14201;43.188;24.160;2023-06-14T02:57:12;99366.41;;;19.59;92.97
26531;BME280;14201;43.188;24.160;2023-06-14T02:59:38;99371.69;;;19.55;93.52
26531;BME280;14201;43.188;24.160;2023-06-14T03:02:03;99367.28;;;19.51;93.40
26531;BME280;14201;43.188;24.160;2023-06-14T03:04:30;99383.13;;;19.49;93.28
26531;BME280;14201;43.188;24.160;2023-06-14T03:07:00;99376.09;;;19.50;93.09
26531;BME280;14201;43.188;24.160;2023-06-14T03:09:28;99380.50;;;19.49;93.10
26531;BME280;14201;43.188;24.160;2023-06-14T03:11:54;99383.13;;;19.43;93.74
26531;BME280;14201;43.188;24.160;2023-06-14T03:14:19;99388.41;;;19.46;94.04
26531;BME280;14201;43.188;24.160;2023-06-14T03:16:46;99374.31;;;19.47;93.96
26531;BME280;14201;43.188;24.160;2023-06-14T03:19:12;99380.50;;;19.49;93.60
26531;BME280;14201;43.188;24.160;2023-06-14T03:21:37;99384.00;;;19.51;93.20
26531;BME280;14201;43.188;24.160;2023-06-14T03:24:04;99385.78;;;19.43;94.06
26531;BME280;14201;43.188;24.160;2023-06-14T03:26:30;99383.97;;;19.36;95.17
26531;BME280;14201;43.188;24.160;2023-06-14T03:28:56;99377.81;;;19.40;95.49
26531;BME280;14201;43.188;24.160;2023-06-14T03:31:22;99367.25;;;19.38;94.34
26531;BME280;14201;43.188;24.160;2023-06-14T03:33:49;99374.31;;;19.50;93.08
26531;BME280;14201;43.188;24.160;2023-06-14T03:36:14;99384.88;;;19.52;91.88
26531;BME280;14201;43.188;24.160;2023-06-14T03:38:40;99383.13;;;19.47;92.38
26531;BME280;14201;43.188;24.160;2023-06-14T03:41:05;99393.69;;;19.44;93.37
26531;BME280;14201;43.188;24.160;2023-06-14T03:43:30;99394.56;;;19.42;93.71
26531;BME280;14201;43.188;24.160;2023-06-14T03:45:56;99389.28;;;19.45;93.68
26531;BME280;14201;43.188;24.160;2023-06-14T03:48:21;99395.47;;;19.52;93.86
26531;BME280;14201;43.188;24.160;2023-06-14T03:50:47;99391.03;;;19.46;93.98
26531;BME280;14201;43.188;24.160;2023-06-14T03:53:12;99384.88;;;19.41;94.85
26531;BME280;14201;43.188;24.160;2023-06-14T03:55:38;99397.19;;;19.40;94.53
26531;BME280;14201;43.188;24.160;2023-06-14T03:58:04;99395.44;;;19.42;94.18
26531;BME280;14201;43.188;24.160;2023-06-14T04:00:29;99396.31;;;19.35;95.44
26531;BME280;14201;43.188;24.160;2023-06-14T04:02:55;99392.75;;;19.22;95.54
26531;BME280;14201;43.188;24.160;2023-06-14T04:05:20;99391.88;;;19.23;95.22
26531;BME280;14201;43.188;24.160;2023-06-14T04:07:46;99383.91;;;19.14;96.28
26531;BME280;14201;43.188;24.160;2023-06-14T04:10:14;99392.72;;;19.16;96.99
26531;BME280;14201;43.188;24.160;2023-06-14T04:12:41;99390.09;;;19.22;97.44
26531;BME280;14201;43.188;24.160;2023-06-14T04:15:07;99398.03;;;19.19;97.34
26531;BME280;14201;43.188;24.160;2023-06-14T04:17:34;99398.03;;;19.22;97.39
26531;BME280;14201;43.188;24.160;2023-06-14T04:20:02;99400.66;;;19.19;97.62
26531;BME280;14201;43.188;24.160;2023-06-14T04:22:29;99403.28;;;19.12;97.92
26531;BME280;14201;43.188;24.160;2023-06-14T04:24:56;99407.66;;;19.08;96.50
26531;BME280;14201;43.188;24.160;2023-06-14T04:27:26;99405.03;;;19.08;96.42
26531;BME280;14201;43.188;24.160;2023-06-14T04:29:53;99411.16;;;19.05;96.75
26531;BME280;14201;43.188;24.160;2023-06-14T04:32:25;99411.16;;;19.02;96.46
26531;BME280;14201;43.188;24.160;2023-06-14T04:34:56;99410.31;;;19.08;96.61
26531;BME280;14201;43.188;24.160;2023-06-14T04:37:22;99411.13;;;18.95;95.38
26531;BME280;14201;43.188;24.160;2023-06-14T04:39:48;99413.78;;;19.01;95.39
26531;BME280;14201;43.188;24.160;2023-06-14T04:42:16;99392.66;;;18.95;95.92
26531;BME280;14201;43.188;24.160;2023-06-14T04:44:42;99407.69;;;19.10;95.26
26531;BME280;14201;43.188;24.160;2023-06-14T04:47:09;99412.13;;;19.21;96.10
26531;BME280;14201;43.188;24.160;2023-06-14T04:49:35;99419.16;;;19.19;95.81
26531;BME280;14201;43.188;24.160;2023-06-14T04:52:01;99421.81;;;19.28;94.23
26531;BME280;14201;43.188;24.160;2023-06-14T04:54:29;99413.91;;;19.33;95.15
26531;BME280;14201;43.188;24.160;2023-06-14T04:56:57;99411.25;;;19.35;96.63
26531;BME280;14201;43.188;24.160;2023-06-14T04:59:22;99410.44;;;19.46;97.43
26531;BME280;14201;43.188;24.160;2023-06-14T05:01:49;99420.13;;;19.44;96.34
26531;BME280;14201;43.188;24.160;2023-06-14T05:04:18;99418.31;;;19.42;94.70
26531;BME280;14201;43.188;24.160;2023-06-14T05:06:44;99413.06;;;19.43;94.19
26531;BME280;14201;43.188;24.160;2023-06-14T05:09:15;99406.88;;;19.35;92.51
26531;BME280;14201;43.188;24.160;2023-06-14T05:11:42;99405.09;;;19.33;91.37
26531;BME280;14201;43.188;24.160;2023-06-14T05:14:10;99414.81;;;19.41;93.02
26531;BME280;14201;43.188;24.160;2023-06-14T05:16:36;99415.72;;;19.46;92.91
26531;BME280;14201;43.188;24.160;2023-06-14T05:19:03;99423.66;;;19.53;90.84
26531;BME280;14201;43.188;24.160;2023-06-14T05:21:29;99428.03;;;19.46;91.76
26531;BME280;14201;43.188;24.160;2023-06-14T05:23:55;99428.91;;;19.50;91.44
26531;BME280;14201;43.188;24.160;2023-06-14T05:26:21;99426.25;;;19.42;89.92
26531;BME280;14201;43.188;24.160;2023-06-14T05:28:49;99423.59;;;19.31;92.21
26531;BME280;14201;43.188;24.160;2023-06-14T05:31:15;99435.09;;;19.47;91.27
26531;BME280;14201;43.188;24.160;2023-06-14T05:33:40;99436.84;;;19.51;93.43
26531;BME280;14201;43.188;24.160;2023-06-14T05:36:06;99439.50;;;19.59;92.38
26531;BME280;14201;43.188;24.160;2023-06-14T05:38:31;99431.66;;;19.74;91.70
26531;BME280;14201;43.188;24.160;2023-06-14T05:40:57;99439.53;;;19.62;91.65
26531;BME280;14201;43.188;24.160;2023-06-14T05:43:22;99438.63;;;19.55;91.56
26531;BME280;14201;43.188;24.160;2023-06-14T05:45:48;99442.16;;;19.60;89.38
26531;BME280;14201;43.188;24.160;2023-06-14T05:48:13;99442.16;;;19.63;90.41
26531;BME280;14201;43.188;24.160;2023-06-14T05:50:39;99451.06;;;19.93;90.22
26531;BME280;14201;43.188;24.160;2023-06-14T05:53:05;99451.97;;;20.08;87.32
26531;BME280;14201;43.188;24.160;2023-06-14T05:55:30;99443.13;;;20.12;88.51
26531;BME280;14201;43.188;24.160;2023-06-14T05:57:56;99451.06;;;20.05;87.36
26531;BME280;14201;43.188;24.160;2023-06-14T06:00:21;99456.38;;;20.24;87.56
26531;BME280;14201;43.188;24.160;2023-06-14T06:02:47;99459.00;;;20.35;86.75
26531;BME280;14201;43.188;24.160;2023-06-14T06:05:12;99461.66;;;20.25;85.66
26531;BME280;14201;43.188;24.160;2023-06-14T06:07:39;99441.41;;;20.34;83.73
26531;BME280;14201;43.188;24.160;2023-06-14T06:10:10;99461.63;;;20.58;82.19
26531;BME280;14201;43.188;24.160;2023-06-14T06:12:37;99461.63;;;20.58;81.46
26531;BME280;14201;43.188;24.160;2023-06-14T06:15:03;99469.63;;;20.61;81.59
26531;BME280;14201;43.188;24.160;2023-06-14T06:17:28;99466.94;;;20.58;81.99
26531;BME280;14201;43.188;24.160;2023-06-14T06:19:54;99444.00;;;20.54;80.76
26531;BME280;14201;43.188;24.160;2023-06-14T06:22:19;99463.41;;;20.56;80.68
26531;BME280;14201;43.188;24.160;2023-06-14T06:24:45;99459.88;;;20.58;81.78
26531;BME280;14201;43.188;24.160;2023-06-14T06:27:11;99461.66;;;20.73;79.12
26531;BME280;14201;43.188;24.160;2023-06-14T06:29:42;99459.00;;;20.84;78.89
26531;BME280;14201;43.188;24.160;2023-06-14T06:32:08;99457.19;;;20.88;80.27
26531;BME280;14201;43.188;24.160;2023-06-14T06:34:34;99460.69;;;20.97;80.74
26531;BME280;14201;43.188;24.160;2023-06-14T06:37:00;99471.25;;;21.13;82.73
26531;BME280;14201;43.188;24.160;2023-06-14T06:39:26;99479.13;;;21.27;82.28
26531;BME280;14201;43.188;24.160;2023-06-14T06:41:51;99475.63;;;21.28;81.07
26531;BME280;14201;43.188;24.160;2023-06-14T06:44:17;99472.94;;;21.37;79.99
26531;BME280;14201;43.188;24.160;2023-06-14T06:46:43;99478.16;;;21.57;75.84
26531;BME280;14201;43.188;24.160;2023-06-14T06:49:09;99474.69;;;21.47;76.33
26531;BME280;14201;43.188;24.160;2023-06-14T06:51:37;99479.94;;;21.52;76.16
26531;BME280;14201;43.188;24.160;2023-06-14T06:54:03;99479.00;;;21.65;76.98
26531;BME280;14201;43.188;24.160;2023-06-14T06:56:28;99479.03;;;21.60;76.63
26531;BME280;14201;43.188;24.160;2023-06-14T06:58:54;99482.53;;;21.69;76.51
26531;BME280;14201;43.188;24.160;2023-06-14T07:01:19;99494.91;;;21.67;78.28
26531;BME280;14201;43.188;24.160;2023-06-14T07:03:45;99490.47;;;21.70;78.73
26531;BME280;14201;43.188;24.160;2023-06-14T07:06:10;99481.59;;;21.77;77.82
26531;BME280;14201;43.188;24.160;2023-06-14T07:08:36;99487.78;;;21.81;75.91
26531;BME280;14201;43.188;24.160;2023-06-14T07:11:04;99480.66;;;21.89;79.40
26531;BME280;14201;43.188;24.160;2023-06-14T07:13:30;99475.34;;;21.91;79.53
26531;BME280;14201;43.188;24.160;2023-06-14T07:15:59;99482.34;;;22.02;79.86
26531;BME280;14201;43.188;24.160;2023-06-14T07:18:25;99488.47;;;22.11;79.33
26531;BME280;14201;43.188;24.160;2023-06-14T07:20:52;99487.53;;;22.15;79.09
26531;BME280;14201;43.188;24.160;2023-06-14T07:23:18;99491.06;;;22.17;79.51
26531;BME280;14201;43.188;24.160;2023-06-14T07:25:43;99488.31;;;22.34;76.42
26531;BME280;14201;43.188;24.160;2023-06-14T07:28:09;99482.03;;;22.42;77.12
26531;BME280;14201;43.188;24.160;2023-06-14T07:30:35;99483.75;;;22.48;76.79
26531;BME280;14201;43.188;24.160;2023-06-14T07:33:00;99484.50;;;22.64;76.74
26531;BME280;14201;43.188;24.160;2023-06-14T07:35:26;99483.53;;;22.74;75.86
26531;BME280;14201;43.188;24.160;2023-06-14T07:37:51;99485.19;;;22.86;74.63
26531;BME280;14201;43.188;24.160;2023-06-14T07:40:18;99482.38;;;23.03;74.63
26531;BME280;14201;43.188;24.160;2023-06-14T07:42:43;99495.44;;;23.22;73.98
26531;BME280;14201;43.188;24.160;2023-06-14T07:45:09;99486.44;;;23.33;74.19
26531;BME280;14201;43.188;24.160;2023-06-14T07:47:35;99487.09;;;23.54;69.37
26531;BME280;14201;43.188;24.160;2023-06-14T07:50:00;99491.47;;;23.56;70.08
26531;BME280;14201;43.188;24.160;2023-06-14T07:52:26;99494.16;;;23.55;71.52
26531;BME280;14201;43.188;24.160;2023-06-14T07:54:52;99503.91;;;23.54;69.70
26531;BME280;14201;43.188;24.160;2023-06-14T07:57:17;99496.81;;;23.53;70.31
26531;BME280;14201;43.188;24.160;2023-06-14T07:59:46;99510.00;;;23.63;67.77
26531;BME280;14201;43.188;24.160;2023-06-14T08:02:11;99509.31;;;23.48;69.98
26531;BME280;14201;43.188;24.160;2023-06-14T08:04:37;99512.81;;;23.52;70.19
26531;BME280;14201;43.188;24.160;2023-06-14T08:07:03;99504.69;;;23.64;69.89
26531;BME280;14201;43.188;24.160;2023-06-14T08:09:29;99513.41;;;23.74;69.82
26531;BME280;14201;43.188;24.160;2023-06-14T08:11:55;99519.50;;;23.85;70.64
26531;BME280;14201;43.188;24.160;2023-06-14T08:14:21;99510.28;;;24.09;70.68
26531;BME280;14201;43.188;24.160;2023-06-14T08:16:47;99517.00;;;24.33;69.54
26531;BME280;14201;43.188;24.160;2023-06-14T08:19:13;99511.22;;;24.64;65.71
26531;BME280;14201;43.188;24.160;2023-06-14T08:21:39;99515.25;;;24.87;63.44
26531;BME280;14201;43.188;24.160;2023-06-14T08:24:05;99526.72;;;24.92;64.84
26531;BME280;14201;43.188;24.160;2023-06-14T08:26:31;99528.41;;;24.96;63.09
26531;BME280;14201;43.188;24.160;2023-06-14T08:28:57;99527.59;;;24.91;63.36
26531;BME280;14201;43.188;24.160;2023-06-14T08:31:23;99514.81;;;24.60;63.76
26531;BME280;14201;43.188;24.160;2023-06-14T08:33:50;99527.91;;;24.74;65.57
26531;BME280;14201;43.188;24.160;2023-06-14T08:36:16;99523.13;;;24.93;66.22
26531;BME280;14201;43.188;24.160;2023-06-14T08:38:42;99523.09;;;25.43;62.42
26531;BME280;14201;43.188;24.160;2023-06-14T08:41:07;99523.41;;;25.71;65.55
26531;BME280;14201;43.188;24.160;2023-06-14T08:43:37;99532.03;;;25.82;61.62
26531;BME280;14201;43.188;24.160;2023-06-14T08:46:03;99527.19;;;25.12;60.83
26531;BME280;14201;43.188;24.160;2023-06-14T08:48:30;99527.91;;;25.24;63.35
26531;BME280;14201;43.188;24.160;2023-06-14T08:51:00;99525.91;;;25.35;64.12
26531;BME280;14201;43.188;24.160;2023-06-14T08:53:32;99525.34;;;25.63;61.80
26531;BME280;14201;43.188;24.160;2023-06-14T08:56:02;99518.59;;;25.87;63.90
26531;BME280;14201;43.188;24.160;2023-06-14T08:58:33;99517.50;;;26.35;64.93
26531;BME280;14201;43.188;24.160;2023-06-14T09:01:01;99520.50;;;26.60;58.42
26531;BME280;14201;43.188;24.160;2023-06-14T09:03:26;99514.06;;;26.31;59.33
26531;BME280;14201;43.188;24.160;2023-06-14T09:05:58;99518.31;;;25.13;62.32
26531;BME280;14201;43.188;24.160;2023-06-14T09:08:25;99508.38;;;25.22;61.60
26531;BME280;14201;43.188;24.160;2023-06-14T09:10:51;99512.66;;;24.84;63.89
26531;BME280;14201;43.188;24.160;2023-06-14T09:13:17;99506.25;;;24.40;65.06
26531;BME280;14201;43.188;24.160;2023-06-14T09:15:43;99517.03;;;24.86;63.71
26531;BME280;14201;43.188;24.160;2023-06-14T09:18:09;99503.28;;;25.09;62.10
26531;BME280;14201;43.188;24.160;2023-06-14T09:20:35;99506.84;;;25.08;62.25
26531;BME280;14201;43.188;24.160;2023-06-14T09:23:01;99506.34;;;25.36;64.44
26531;BME280;14201;43.188;24.160;2023-06-14T09:25:26;99508.25;;;25.73;64.71
26531;BME280;14201;43.188;24.160;2023-06-14T09:27:52;99512.59;;;26.18;62.11
26531;BME280;14201;43.188;24.160;2023-06-14T09:30:20;99512.25;;;26.31;59.93
26531;BME280;14201;43.188;24.160;2023-06-14T09:32:46;99509.75;;;26.25;59.77
26531;BME280;14201;43.188;24.160;2023-06-14T09:35:12;99514.59;;;26.08;59.58
26531;BME280;14201;43.188;24.160;2023-06-14T09:37:42;99513.47;;;26.18;62.48
26531;BME280;14201;43.188;24.160;2023-06-14T09:40:08;99510.69;;;26.23;62.09
26531;BME280;14201;43.188;24.160;2023-06-14T09:42:35;99519.91;;;26.47;58.37
26531;BME280;14201;43.188;24.160;2023-06-14T09:45:02;99509.78;;;26.24;59.71
26531;BME280;14201;43.188;24.160;2023-06-14T09:47:29;99496.53;;;26.55;62.59
26531;BME280;14201;43.188;24.160;2023-06-14T09:49:55;99507.91;;;26.99;58.58
26531;BME280;14201;43.188;24.160;2023-06-14T09:52:21;99510.31;;;27.08;59.44
26531;BME280;14201;43.188;24.160;2023-06-14T09:54:48;99506.28;;;27.58;60.93
26531;BME280;14201;43.188;24.160;2023-06-14T09:57:22;99501.19;;;28.08;58.95
26531;BME280;14201;43.188;24.160;2023-06-14T09:59:48;99505.84;;;28.30;58.92
26531;BME280;14201;43.188;24.160;2023-06-14T10:02:22;99501.69;;;28.21;55.16
26531;BME280;14201;43.188;24.160;2023-06-14T10:04:51;99499.19;;;27.85;55.53
26531;BME280;14201;43.188;24.160;2023-06-14T10:07:19;99496.16;;;27.67;56.90
26531;BME280;14201;43.188;24.160;2023-06-14T10:09:46;99498.06;;;27.64;58.81
26531;BME280;14201;43.188;24.160;2023-06-14T10:12:17;99504.03;;;27.72;57.34
26531;BME280;14201;43.188;24.160;2023-06-14T10:14:52;99495.03;;;27.76;56.40
26531;BME280;14201;43.188;24.160;2023-06-14T10:17:47;99497.22;;;27.92;57.08
26531;BME280;14201;43.188;24.160;2023-06-14T10:20:35;99494.03;;;28.08;56.86
26531;BME280;14201;43.188;24.160;2023-06-14T10:23:10;99482.88;;;28.22;57.77
26531;BME280;14201;43.188;24.160;2023-06-14T10:25:37;99489.47;;;28.39;57.55
26531;BME280;14201;43.188;24.160;2023-06-14T10:30:37;99486.50;;;28.75;55.96
26531;BME280;14201;43.188;24.160;2023-06-14T10:33:07;99482.38;;;28.91;53.96
26531;BME280;14201;43.188;24.160;2023-06-14T10:35:33;99484.63;;;29.02;54.90
26531;BME280;14201;43.188;24.160;2023-06-14T10:59:04;99466.03;;;29.70;52.24
26531;BME280;14201;43.188;24.160;2023-06-14T11:01:35;99462.00;;;30.05;50.37
26531;BME280;14201;43.188;24.160;2023-06-14T11:04:09;99457.91;;;29.49;50.45
26531;BME280;14201;43.188;24.160;2023-06-14T11:06:45;99461.41;;;29.02;53.94
26531;BME280;14201;43.188;24.160;2023-06-14T11:12:03;99458.13;;;28.14;54.18
26531;BME280;14201;43.188;24.160;2023-06-14T11:14:30;99442.25;;;27.80;55.39
26531;BME280;14201;43.188;24.160;2023-06-14T11:16:56;99443.91;;;28.12;57.80
26531;BME280;14201;43.188;24.160;2023-06-14T11:19:22;99443.66;;;28.46;59.10
26531;BME280;14201;43.188;24.160;2023-06-14T11:21:48;99429.78;;;28.62;52.85
26531;BME280;14201;43.188;24.160;2023-06-14T11:24:14;99436.41;;;27.37;55.58
26531;BME280;14201;43.188;24.160;2023-06-14T11:26:40;99436.09;;;28.06;56.45
26531;BME280;14201;43.188;24.160;2023-06-14T11:29:06;99439.00;;;28.53;57.50
26531;BME280;14201;43.188;24.160;2023-06-14T11:31:32;99429.59;;;28.92;55.82
26531;BME280;14201;43.188;24.160;2023-06-14T11:33:58;99430.88;;;29.30;51.74
26531;BME280;14201;43.188;24.160;2023-06-14T11:36:28;99433.25;;;29.61;50.54
26531;BME280;14201;43.188;24.160;2023-06-14T11:39:04;99420.53;;;29.19;51.77
26531;BME280;14201;43.188;24.160;2023-06-14T11:41:42;99417.88;;;28.69;52.76
26531;BME280;14201;43.188;24.160;2023-06-14T11:44:09;99413.44;;;29.18;53.03
26531;BME280;14201;43.188;24.160;2023-06-14T11:46:35;99421.28;;;29.47;49.79
26531;BME280;14201;43.188;24.160;2023-06-14T11:49:02;99418.72;;;29.67;53.55
26531;BME280;14201;43.188;24.160;2023-06-14T11:51:32;99421.69;;;30.05;52.82
26531;BME280;14201;43.188;24.160;2023-06-14T11:53:58;99421.59;;;28.90;51.57
26531;BME280;14201;43.188;24.160;2023-06-14T11:56:24;99402.25;;;28.30;53.86
26531;BME280;14201;43.188;24.160;2023-06-14T11:58:52;99417.75;;;28.47;53.71
26531;BME280;14201;43.188;24.160;2023-06-14T12:01:18;99405.88;;;28.56;54.29
26531;BME280;14201;43.188;24.160;2023-06-14T12:03:48;99400.19;;;28.89;53.30
26531;BME280;14201;43.188;24.160;2023-06-14T12:06:14;99406.56;;;29.10;51.80
26531;BME280;14201;43.188;24.160;2023-06-14T12:08:40;99393.28;;;29.54;52.24
26531;BME280;14201;43.188;24.160;2023-06-14T12:11:12;99396.47;;;29.41;51.27
26531;BME280;14201;43.188;24.160;2023-06-14T12:13:42;99401.34;;;29.54;51.52
26531;BME280;14201;43.188;24.160;2023-06-14T12:16:09;99394.13;;;29.32;51.28
26531;BME280;14201;43.188;24.160;2023-06-14T12:18:39;99389.69;;;29.31;50.30
26531;BME280;14201;43.188;24.160;2023-06-14T12:21:05;99391.97;;;29.42;52.98
26531;BME280;14201;43.188;24.160;2023-06-14T12:23:45;99375.97;;;29.39;53.37
26531;BME280;14201;43.188;24.160;2023-06-14T12:26:19;99369.88;;;29.35;52.43
26531;BME280;14201;43.188;24.160;2023-06-14T12:28:46;99371.34;;;28.95;51.58
26531;BME280;14201;43.188;24.160;2023-06-14T12:31:14;99385.22;;;29.32;49.99
26531;BME280;14201;43.188;24.160;2023-06-14T12:33:41;99377.56;;;29.21;52.37
26531;BME280;14201;43.188;24.160;2023-06-14T12:36:08;99377.66;;;28.69;50.58
26531;BME280;14201;43.188;24.160;2023-06-14T12:38:35;99373.91;;;28.98;51.61
26531;BME280;14201;43.188;24.160;2023-06-14T12:41:01;99368.78;;;28.92;51.45
26531;BME280;14201;43.188;24.160;2023-06-14T12:43:27;99374.84;;;29.22;52.80
26531;BME280;14201;43.188;24.160;2023-06-14T12:45:53;99359.44;;;28.79;51.91
26531;BME280;14201;43.188;24.160;2023-06-14T12:48:19;99356.56;;;28.08;52.85
26531;BME280;14201;43.188;24.160;2023-06-14T12:50:44;99371.59;;;27.27;56.04
26531;BME280;14201;43.188;24.160;2023-06-14T12:53:10;99364.75;;;27.17;55.77
26531;BME280;14201;43.188;24.160;2023-06-14T12:55:36;99362.28;;;27.11;57.28
26531;BME280;14201;43.188;24.160;2023-06-14T12:58:01;99359.84;;;27.03;58.53
26531;BME280;14201;43.188;24.160;2023-06-14T13:00:27;99352.44;;;27.11;57.28
26531;BME280;14201;43.188;24.160;2023-06-14T13:02:55;99353.53;;;27.04;57.13
26531;BME280;14201;43.188;24.160;2023-06-14T13:05:21;99346.03;;;27.17;58.11
26531;BME280;14201;43.188;24.160;2023-06-14T13:07:46;99349.81;;;27.10;56.39
26531;BME280;14201;43.188;24.160;2023-06-14T13:10:12;99342.19;;;27.27;57.04
26531;BME280;14201;43.188;24.160;2023-06-14T13:12:38;99338.56;;;27.30;56.97
26531;BME280;14201;43.188;24.160;2023-06-14T13:15:04;99343.22;;;27.52;58.63
26531;BME280;14201;43.188;24.160;2023-06-14T13:17:29;99337.34;;;27.68;57.49